sensor_id;sensor_type;location;lat;lon;timestamp;temperature;humidity
78550;DHT22;68091;52.130;5.570;2023-07-13T00:01:27;16.80;99.90
78550;DHT22;68091;52.130;5.570;2023-07-13T00:03:53;16.80;99.90
78550;DHT22;68091;52.130;5.570;2023-07-13T00:06:19;16.60;99.90
78550;DHT22;68091;52.130;5.570;2023-07-13T00:08:45;16.60;99.90
78550;DHT22;68091;52.130;5.570;2023-07-13T00:11:12;16.60;99.90
78550;DHT22;68091;52.130;5.570;2023-07-13T00:13:38;16.50;99.90
78550;DHT22;68091;52.130;5.570;2023-07-13T00:16:04;16.50;99.90
78550;DHT22;68091;52.130;5.570;2023-07-13T00:18:33;16.40;99.90
78550;DHT22;68091;52.130;5.570;2023-07-13T00:20:58;16.40;99.90
78550;DHT22;68091;52.130;5.570;2023-07-13T00:23:31;16.30;99.90
78550;DHT22;68091;52.130;5.570;2023-07-13T00:25:59;16.30;99.90
78550;DHT22;68091;52.130;5.570;2023-07-13T00:28:25;16.30;99.90
78550;DHT22;68091;52.130;5.570;2023-07-13T00:30:50;16.30;99.90
78550;DHT22;68091;52.130;5.570;2023-07-13T00:33:16;16.20;99.90
78550;DHT22;68091;52.130;5.570;2023-07-13T00:35:42;16.20;99.90
78550;DHT22;68091;52.130;5.570;2023-07-13T00:38:09;16.10;99.90
78550;DHT22;68091;52.130;5.570;2023-07-13T00:40:35;16.10;99.90
78550;DHT22;68091;52.130;5.570;2023-07-13T00:43:00;16.10;99.90
78550;DHT22;68091;52.130;5.570;2023-07-13T00:47:52;16.00;99.90
78550;DHT22;68091;52.130;5.570;2023-07-13T00:50:17;16.00;99.90
78550;DHT22;68091;52.130;5.570;2023-07-13T00:52:49;15.90;99.90
78550;DHT22;68091;52.130;5.570;2023-07-13T00:55:15;15.90;99.90
78550;DHT22;68091;52.130;5.570;2023-07-13T00:57:43;15.90;99.90
78550;DHT22;68091;52.130;5.570;2023-07-13T01:00:09;15.90;99.90
78550;DHT22;68091;52.130;5.570;2023-07-13T01:02:42;15.80;99.90
78550;DHT22;68091;52.130;5.570;2023-07-13T01:05:11;15.80;99.90
78550;DHT22;68091;52.130;5.570;2023-07-13T01:07:39;15.80;99.90
78550;DHT22;68091;52.130;5.570;2023-07-13T01:10:05;15.80;99.90
78550;DHT22;68091;52.130;5.570;2023-07-13T01:12:31;15.80;99.90
78550;DHT22;68091;52.130;5.570;2023-07-13T01:14:59;15.70;99.90
78550;DHT22;68091;52.130;5.570;2023-07-13T01:17:25;15.70;99.90
78550;DHT22;68091;52.130;5.570;2023-07-13T01:19:55;15.60;99.90
78550;DHT22;68091;52.130;5.570;2023-07-13T01:22:21;15.60;99.90
78550;DHT22;68091;52.130;5.570;2023-07-13T01:24:50;15.60;99.90
78550;DHT22;68091;52.130;5.570;2023-07-13T01:27:19;15.60;99.90
78550;DHT22;68091;52.130;5.570;2023-07-13T01:29:45;15.60;99.90
78550;DHT22;68091;52.130;5.570;2023-07-13T01:32:19;15.60;99.90
78550;DHT22;68091;52.130;5.570;2023-07-13T01:34:50;15.50;99.90
78550;DHT22;68091;52.130;5.570;2023-07-13T01:37:15;15.40;99.90
78550;DHT22;68091;52.130;5.570;2023-07-13T01:39:41;15.40;99.90
78550;DHT22;68091;52.130;5.570;2023-07-13T01:42:07;15.40;99.90
78550;DHT22;68091;52.130;5.570;2023-07-13T01:44:33;15.40;99.90
78550;DHT22;68091;52.130;5.570;2023-07-13T01:47:01;15.40;99.90
78550;DHT22;68091;52.130;5.570;2023-07-13T01:49:27;15.30;99.90
78550;DHT22;68091;52.130;5.570;2023-07-13T01:51:52;15.30;99.90
78550;DHT22;68091;52.130;5.570;2023-07-13T01:54:19;15.30;99.90
78550;DHT22;68091;52.130;5.570;2023-07-13T01:56:44;15.30;99.90
78550;DHT22;68091;52.130;5.570;2023-07-13T01:59:13;15.30;99.90
78550;DHT22;68091;52.130;5.570;2023-07-13T02:01:38;15.30;99.90
78550;DHT22;68091;52.130;5.570;2023-07-13T02:04:04;15.30;99.90
78550;DHT22;68091;52.130;5.570;2023-07-13T02:06:30;15.30;99.90
78550;DHT22;68091;52.130;5.570;2023-07-13T02:08:55;15.30;99.90
78550;DHT22;68091;52.130;5.570;2023-07-13T02:11:21;15.20;99.90
78550;DHT22;68091;52.130;5.570;2023-07-13T02:13:46;15.20;99.90
78550;DHT22;68091;52.130;5.570;2023-07-13T02:16:12;15.10;99.90
78550;DHT22;68091;52.130;5.570;2023-07-13T02:18:38;15.10;99.90
78550;DHT22;68091;52.130;5.570;2023-07-13T02:21:03;15.00;99.90
78550;DHT22;68091;52.130;5.570;2023-07-13T02:23:29;15.00;99.90
78550;DHT22;68091;52.130;5.570;2023-07-13T02:25:55;15.10;99.90
78550;DHT22;68091;52.130;5.570;2023-07-13T02:28:21;15.00;99.90
78550;DHT22;68091;52.130;5.570;2023-07-13T02:30:50;15.10;99.90
78550;DHT22;68091;52.130;5.570;2023-07-13T02:33:15;15.10;99.90
78550;DHT22;68091;52.130;5.570;2023-07-13T02:35:41;15.00;99.90
78550;DHT22;68091;52.130;5.570;2023-07-13T02:38:07;15.00;99.90
78550;DHT22;68091;52.130;5.570;2023-07-13T02:40:33;15.00;99.90
78550;DHT22;68091;52.130;5.570;2023-07-13T02:43:01;15.00;99.90
78550;DHT22;68091;52.130;5.570;2023-07-13T02:45:27;14.90;99.90
78550;DHT22;68091;52.130;5.570;2023-07-13T02:47:52;14.90;99.90
78550;DHT22;68091;52.130;5.570;2023-07-13T02:50:18;14.90;99.90
78550;DHT22;68091;52.130;5.570;2023-07-13T02:52:43;14.90;99.90
78550;DHT22;68091;52.130;5.570;2023-07-13T02:55:12;14.90;99.90
78550;DHT22;68091;52.130;5.570;2023-07-13T02:57:38;14.90;99.90
78550;DHT22;68091;52.130;5.570;2023-07-13T03:00:03;14.90;99.90
78550;DHT22;68091;52.130;5.570;2023-07-13T03:02:33;14.90;99.90
78550;DHT22;68091;52.130;5.570;2023-07-13T03:04:59;14.90;99.90
78550;DHT22;68091;52.130;5.570;2023-07-13T03:07:25;14.80;99.90
78550;DHT22;68091;52.130;5.570;2023-07-13T03:09:57;14.80;99.90
78550;DHT22;68091;52.130;5.570;2023-07-13T03:12:23;14.80;99.90
78550;DHT22;68091;52.130;5.570;2023-07-13T03:14:48;14.80;99.90
78550;DHT22;68091;52.130;5.570;2023-07-13T03:17:14;14.80;99.90
78550;DHT22;68091;52.130;5.570;2023-07-13T03:19:40;14.80;99.90
78550;DHT22;68091;52.130;5.570;2023-07-13T03:22:05;14.80;99.90
78550;DHT22;68091;52.130;5.570;2023-07-13T03:24:34;14.70;99.90
78550;DHT22;68091;52.130;5.570;2023-07-13T03:27:01;14.70;99.90
78550;DHT22;68091;52.130;5.570;2023-07-13T03:29:27;14.80;99.90
78550;DHT22;68091;52.130;5.570;2023-07-13T03:31:53;14.70;99.90
78550;DHT22;68091;52.130;5.570;2023-07-13T03:34:18;14.80;99.90
78550;DHT22;68091;52.130;5.570;2023-07-13T03:36:44;14.80;99.90
78550;DHT22;68091;52.130;5.570;2023-07-13T03:39:09;14.70;99.90
78550;DHT22;68091;52.130;5.570;2023-07-13T03:41:35;14.80;99.90
78550;DHT22;68091;52.130;5.570;2023-07-13T03:44:01;14.80;99.90
78550;DHT22;68091;52.130;5.570;2023-07-13T03:46:27;14.70;99.90
78550;DHT22;68091;52.130;5.570;2023-07-13T03:48:52;14.70;99.90
78550;DHT22;68091;52.130;5.570;2023-07-13T03:51:18;14.70;99.90
78550;DHT22;68091;52.130;5.570;2023-07-13T03:53:44;14.70;99.90
78550;DHT22;68091;52.130;5.570;2023-07-13T03:56:10;14.70;99.90
78550;DHT22;68091;52.130;5.570;2023-07-13T03:58:39;14.70;99.90
78550;DHT22;68091;52.130;5.570;2023-07-13T04:01:06;14.70;99.90
78550;DHT22;68091;52.130;5.570;2023-07-13T04:03:32;14.70;99.90
78550;DHT22;68091;52.130;5.570;2023-07-13T04:05:58;14.70;99.90
78550;DHT22;68091;52.130;5.570;2023-07-13T04:08:26;14.70;99.90
78550;DHT22;68091;52.130;5.570;2023-07-13T04:10:52;14.80;99.90
78550;DHT22;68091;52.130;5.570;2023-07-13T04:13:17;14.80;99.90
78550;DHT22;68091;52.130;5.570;2023-07-13T04:15:43;14.80;99.90
78550;DHT22;68091;52.130;5.570;2023-07-13T04:18:08;14.80;99.90
78550;DHT22;68091;52.130;5.570;2023-07-13T04:20:34;14.80;99.90
78550;DHT22;68091;52.130;5.570;2023-07-13T04:22:59;14.80;99.90
78550;DHT22;68091;52.130;5.570;2023-07-13T04:25:26;14.80;99.90
78550;DHT22;68091;52.130;5.570;2023-07-13T04:27:52;14.80;99.90
78550;DHT22;68091;52.130;5.570;2023-07-13T04:30:18;14.90;99.90
78550;DHT22;68091;52.130;5.570;2023-07-13T04:32:44;14.90;99.90
78550;DHT22;68091;52.130;5.570;2023-07-13T04:35:09;14.90;99.90
78550;DHT22;68091;52.130;5.570;2023-07-13T04:37:35;14.90;99.90
78550;DHT22;68091;52.130;5.570;2023-07-13T04:40:01;14.90;99.90
78550;DHT22;68091;52.130;5.570;2023-07-13T04:42:26;14.90;99.90
78550;DHT22;68091;52.130;5.570;2023-07-13T04:44:52;15.00;99.90
78550;DHT22;68091;52.130;5.570;2023-07-13T04:47:21;15.00;99.90
78550;DHT22;68091;52.130;5.570;2023-07-13T04:49:46;15.10;99.90
78550;DHT22;68091;52.130;5.570;2023-07-13T04:52:12;15.20;99.90
78550;DHT22;68091;52.130;5.570;2023-07-13T04:54:37;15.20;99.90
78550;DHT22;68091;52.130;5.570;2023-07-13T04:57:04;15.30;99.90
78550;DHT22;68091;52.130;5.570;2023-07-13T04:59:34;15.30;99.90
78550;DHT22;68091;52.130;5.570;2023-07-13T05:02:00;15.40;99.90
78550;DHT22;68091;52.130;5.570;2023-07-13T05:04:26;15.60;99.90
78550;DHT22;68091;52.130;5.570;2023-07-13T05:06:52;15.60;99.90
78550;DHT22;68091;52.130;5.570;2023-07-13T05:09:18;15.70;99.90
78550;DHT22;68091;52.130;5.570;2023-07-13T05:11:43;15.80;99.90
78550;DHT22;68091;52.130;5.570;2023-07-13T05:14:09;15.80;99.90
78550;DHT22;68091;52.130;5.570;2023-07-13T05:16:35;15.80;99.90
78550;DHT22;68091;52.130;5.570;2023-07-13T05:19:01;15.90;99.90
78550;DHT22;68091;52.130;5.570;2023-07-13T05:21:29;15.90;99.90
78550;DHT22;68091;52.130;5.570;2023-07-13T05:23:55;16.00;99.90
78550;DHT22;68091;52.130;5.570;2023-07-13T05:26:21;16.10;99.90
78550;DHT22;68091;52.130;5.570;2023-07-13T05:28:47;16.20;99.90
78550;DHT22;68091;52.130;5.570;2023-07-13T05:31:12;16.20;99.90
78550;DHT22;68091;52.130;5.570;2023-07-13T05:33:38;16.30;99.90
78550;DHT22;68091;52.130;5.570;2023-07-13T05:36:04;16.20;99.90
78550;DHT22;68091;52.130;5.570;2023-07-13T05:38:29;16.30;99.90
78550;DHT22;68091;52.130;5.570;2023-07-13T05:40:55;16.30;99.90
78550;DHT22;68091;52.130;5.570;2023-07-13T05:43:21;16.50;99.90
78550;DHT22;68091;52.130;5.570;2023-07-13T05:45:47;16.50;99.90
78550;DHT22;68091;52.130;5.570;2023-07-13T05:48:14;16.50;99.90
78550;DHT22;68091;52.130;5.570;2023-07-13T05:50:40;16.50;99.90
78550;DHT22;68091;52.130;5.570;2023-07-13T05:53:05;16.50;99.90
78550;DHT22;68091;52.130;5.570;2023-07-13T05:55:31;16.50;99.90
78550;DHT22;68091;52.130;5.570;2023-07-13T05:58:02;16.60;99.90
78550;DHT22;68091;52.130;5.570;2023-07-13T06:00:28;16.60;99.90
78550;DHT22;68091;52.130;5.570;2023-07-13T06:02:53;16.70;99.90
78550;DHT22;68091;52.130;5.570;2023-07-13T06:05:19;16.70;99.90
78550;DHT22;68091;52.130;5.570;2023-07-13T06:07:44;16.70;99.90
78550;DHT22;68091;52.130;5.570;2023-07-13T06:10:10;16.80;99.90
78550;DHT22;68091;52.130;5.570;2023-07-13T06:12:36;16.90;99.90
78550;DHT22;68091;52.130;5.570;2023-07-13T06:15:01;17.00;99.90
78550;DHT22;68091;52.130;5.570;2023-07-13T06:17:27;17.00;99.90
78550;DHT22;68091;52.130;5.570;2023-07-13T06:19:52;17.10;99.90
78550;DHT22;68091;52.130;5.570;2023-07-13T06:22:18;17.20;99.90
78550;DHT22;68091;52.130;5.570;2023-07-13T06:24:43;17.30;99.90
78550;DHT22;68091;52.130;5.570;2023-07-13T06:27:09;17.40;99.90
78550;DHT22;68091;52.130;5.570;2023-07-13T06:29:34;17.40;99.90
78550;DHT22;68091;52.130;5.570;2023-07-13T06:32:00;17.30;99.90
78550;DHT22;68091;52.130;5.570;2023-07-13T06:34:26;17.20;99.90
78550;DHT22;68091;52.130;5.570;2023-07-13T06:36:52;17.10;99.90
78550;DHT22;68091;52.130;5.570;2023-07-13T06:39:17;17.10;99.90
78550;DHT22;68091;52.130;5.570;2023-07-13T06:41:43;17.00;99.90
78550;DHT22;68091;52.130;5.570;2023-07-13T06:44:08;17.00;99.90
78550;DHT22;68091;52.130;5.570;2023-07-13T06:46:34;17.10;99.90
78550;DHT22;68091;52.130;5.570;2023-07-13T06:49:00;17.20;99.90
78550;DHT22;68091;52.130;5.570;2023-07-13T06:51:25;17.30;99.90
78550;DHT22;68091;52.130;5.570;2023-07-13T06:53:51;17.50;99.90
78550;DHT22;68091;52.130;5.570;2023-07-13T06:56:17;17.50;99.90
78550;DHT22;68091;52.130;5.570;2023-07-13T06:58:42;17.60;99.90
78550;DHT22;68091;52.130;5.570;2023-07-13T07:01:08;17.90;99.90
78550;DHT22;68091;52.130;5.570;2023-07-13T07:03:33;17.90;99.90
78550;DHT22;68091;52.130;5.570;2023-07-13T07:06:12;18.00;99.90
78550;DHT22;68091;52.130;5.570;2023-07-13T07:08:39;18.10;99.90
78550;DHT22;68091;52.130;5.570;2023-07-13T07:11:10;18.20;99.90
78550;DHT22;68091;52.130;5.570;2023-07-13T07:13:36;18.30;99.90
78550;DHT22;68091;52.130;5.570;2023-07-13T07:16:02;18.30;99.90
78550;DHT22;68091;52.130;5.570;2023-07-13T07:18:27;18.20;99.90
78550;DHT22;68091;52.130;5.570;2023-07-13T07:20:53;18.30;99.90
78550;DHT22;68091;52.130;5.570;2023-07-13T07:23:19;18.30;99.90
78550;DHT22;68091;52.130;5.570;2023-07-13T07:25:44;18.30;99.90
78550;DHT22;68091;52.130;5.570;2023-07-13T07:28:10;18.30;99.90
78550;DHT22;68091;52.130;5.570;2023-07-13T07:30:36;18.30;99.90
78550;DHT22;68091;52.130;5.570;2023-07-13T07:33:03;18.40;99.90
78550;DHT22;68091;52.130;5.570;2023-07-13T07:35:31;18.50;99.90
78550;DHT22;68091;52.130;5.570;2023-07-13T07:37:56;18.70;99.90
78550;DHT22;68091;52.130;5.570;2023-07-13T07:40:22;18.80;99.90
78550;DHT22;68091;52.130;5.570;2023-07-13T07:42:51;18.60;99.90
78550;DHT22;68091;52.130;5.570;2023-07-13T07:45:16;18.40;99.90
78550;DHT22;68091;52.130;5.570;2023-07-13T07:47:42;18.30;99.90
78550;DHT22;68091;52.130;5.570;2023-07-13T07:50:07;18.30;99.90
78550;DHT22;68091;52.130;5.570;2023-07-13T07:52:33;18.50;99.90
78550;DHT22;68091;52.130;5.570;2023-07-13T07:54:59;18.60;99.90
78550;DHT22;68091;52.130;5.570;2023-07-13T07:57:24;18.80;99.90
78550;DHT22;68091;52.130;5.570;2023-07-13T07:59:50;18.90;99.90
78550;DHT22;68091;52.130;5.570;2023-07-13T08:02:15;19.00;99.90
78550;DHT22;68091;52.130;5.570;2023-07-13T08:04:41;19.10;99.90
78550;DHT22;68091;52.130;5.570;2023-07-13T08:07:07;19.10;99.90
78550;DHT22;68091;52.130;5.570;2023-07-13T08:09:33;19.10;99.90
78550;DHT22;68091;52.130;5.570;2023-07-13T08:11:58;19.00;99.90
78550;DHT22;68091;52.130;5.570;2023-07-13T08:14:26;18.90;99.90
78550;DHT22;68091;52.130;5.570;2023-07-13T08:16:51;18.80;99.90
78550;DHT22;68091;52.130;5.570;2023-07-13T08:19:17;18.80;99.90
78550;DHT22;68091;52.130;5.570;2023-07-13T08:21:43;18.80;99.90
78550;DHT22;68091;52.130;5.570;2023-07-13T08:24:09;19.40;99.90
78550;DHT22;68091;52.130;5.570;2023-07-13T08:26:35;19.90;99.90
78550;DHT22;68091;52.130;5.570;2023-07-13T08:29:03;20.00;99.90
78550;DHT22;68091;52.130;5.570;2023-07-13T08:31:29;20.40;99.90
78550;DHT22;68091;52.130;5.570;2023-07-13T08:33:54;20.60;99.90
78550;DHT22;68091;52.130;5.570;2023-07-13T08:36:20;20.60;99.90
78550;DHT22;68091;52.130;5.570;2023-07-13T08:38:45;21.00;99.90
78550;DHT22;68091;52.130;5.570;2023-07-13T08:41:15;21.00;99.90
78550;DHT22;68091;52.130;5.570;2023-07-13T08:43:42;20.80;99.90
78550;DHT22;68091;52.130;5.570;2023-07-13T08:48:54;20.50;99.90
78550;DHT22;68091;52.130;5.570;2023-07-13T08:53:55;20.40;99.90
78550;DHT22;68091;52.130;5.570;2023-07-13T08:56:23;20.60;99.90
78550;DHT22;68091;52.130;5.570;2023-07-13T08:58:51;20.80;99.90
78550;DHT22;68091;52.130;5.570;2023-07-13T09:03:55;21.40;99.90
78550;DHT22;68091;52.130;5.570;2023-07-13T09:06:23;21.30;99.90
78550;DHT22;68091;52.130;5.570;2023-07-13T09:08:58;21.10;99.90
78550;DHT22;68091;52.130;5.570;2023-07-13T09:14:15;20.60;99.90
78550;DHT22;68091;52.130;5.570;2023-07-13T09:16:43;20.30;99.90
78550;DHT22;68091;52.130;5.570;2023-07-13T09:19:11;20.20;99.90
78550;DHT22;68091;52.130;5.570;2023-07-13T09:21:40;20.00;99.90
78550;DHT22;68091;52.130;5.570;2023-07-13T09:24:41;20.00;99.90
78550;DHT22;68091;52.130;5.570;2023-07-13T09:26:59;20.10;99.90
78550;DHT22;68091;52.130;5.570;2023-07-13T09:29:29;20.10;99.90
78550;DHT22;68091;52.130;5.570;2023-07-13T09:31:58;20.10;99.90
78550;DHT22;68091;52.130;5.570;2023-07-13T09:34:26;20.00;99.90
78550;DHT22;68091;52.130;5.570;2023-07-13T09:36:51;20.00;99.90
78550;DHT22;68091;52.130;5.570;2023-07-13T09:39:30;20.10;99.90
78550;DHT22;68091;52.130;5.570;2023-07-13T09:42:14;20.40;99.90
78550;DHT22;68091;52.130;5.570;2023-07-13T09:47:16;20.50;99.90
78550;DHT22;68091;52.130;5.570;2023-07-13T09:49:42;20.50;99.90
78550;DHT22;68091;52.130;5.570;2023-07-13T09:52:12;20.50;99.90
78550;DHT22;68091;52.130;5.570;2023-07-13T09:54:39;20.70;99.90
78550;DHT22;68091;52.130;5.570;2023-07-13T09:57:15;20.90;99.90
78550;DHT22;68091;52.130;5.570;2023-07-13T09:59:43;21.10;99.90
78550;DHT22;68091;52.130;5.570;2023-07-13T10:02:28;21.30;99.90
78550;DHT22;68091;52.130;5.570;2023-07-13T10:05:01;20.90;99.90
78550;DHT22;68091;52.130;5.570;2023-07-13T10:07:28;20.50;99.90
78550;DHT22;68091;52.130;5.570;2023-07-13T10:09:55;20.40;99.90
78550;DHT22;68091;52.130;5.570;2023-07-13T10:12:21;20.00;99.90
78550;DHT22;68091;52.130;5.570;2023-07-13T10:14:49;19.70;99.90
78550;DHT22;68091;52.130;5.570;2023-07-13T10:17:15;19.10;99.90
78550;DHT22;68091;52.130;5.570;2023-07-13T10:19:43;18.60;99.90
78550;DHT22;68091;52.130;5.570;2023-07-13T10:24:45;18.20;99.90
78550;DHT22;68091;52.130;5.570;2023-07-13T10:27:20;18.30;99.90
78550;DHT22;68091;52.130;5.570;2023-07-13T10:29:58;18.30;99.90
78550;DHT22;68091;52.130;5.570;2023-07-13T10:32:26;18.60;99.90
78550;DHT22;68091;52.130;5.570;2023-07-13T10:34:52;18.80;99.90
78550;DHT22;68091;52.130;5.570;2023-07-13T10:37:22;19.10;99.90
78550;DHT22;68091;52.130;5.570;2023-07-13T10:39:48;19.50;99.90
78550;DHT22;68091;52.130;5.570;2023-07-13T10:42:18;19.80;99.90
78550;DHT22;68091;52.130;5.570;2023-07-13T10:44:45;19.70;99.90
78550;DHT22;68091;52.130;5.570;2023-07-13T10:47:12;19.90;99.90
78550;DHT22;68091;52.130;5.570;2023-07-13T10:49:39;20.20;99.90
78550;DHT22;68091;52.130;5.570;2023-07-13T10:52:06;20.30;99.90
78550;DHT22;68091;52.130;5.570;2023-07-13T10:54:32;20.30;99.90
78550;DHT22;68091;52.130;5.570;2023-07-13T10:57:20;20.30;99.90
78550;DHT22;68091;52.130;5.570;2023-07-13T10:59:49;20.10;99.90
78550;DHT22;68091;52.130;5.570;2023-07-13T11:02:34;20.00;99.90
78550;DHT22;68091;52.130;5.570;2023-07-13T11:04:59;19.80;99.90
78550;DHT22;68091;52.130;5.570;2023-07-13T11:07:51;19.60;99.90
78550;DHT22;68091;52.130;5.570;2023-07-13T11:10:47;19.30;99.90
78550;DHT22;68091;52.130;5.570;2023-07-13T11:13:02;19.60;99.90
78550;DHT22;68091;52.130;5.570;2023-07-13T11:15:31;20.00;99.90
78550;DHT22;68091;52.130;5.570;2023-07-13T11:17:57;20.30;99.90
78550;DHT22;68091;52.130;5.570;2023-07-13T11:23:08;20.40;99.90
78550;DHT22;68091;52.130;5.570;2023-07-13T11:25:35;20.50;99.90
78550;DHT22;68091;52.130;5.570;2023-07-13T11:35:43;21.00;99.90
78550;DHT22;68091;52.130;5.570;2023-07-13T11:38:14;21.20;99.90
78550;DHT22;68091;52.130;5.570;2023-07-13T11:40:42;21.20;99.90
78550;DHT22;68091;52.130;5.570;2023-07-13T11:43:12;21.20;99.90
78550;DHT22;68091;52.130;5.570;2023-07-13T11:45:38;21.40;99.90
78550;DHT22;68091;52.130;5.570;2023-07-13T11:48:04;21.90;99.90
78550;DHT22;68091;52.130;5.570;2023-07-13T11:50:29;21.90;99.90
78550;DHT22;68091;52.130;5.570;2023-07-13T11:52:57;21.90;99.90
78550;DHT22;68091;52.130;5.570;2023-07-13T11:55:24;21.50;99.90
78550;DHT22;68091;52.130;5.570;2023-07-13T11:57:57;21.00;99.90
78550;DHT22;68091;52.130;5.570;2023-07-13T12:00:25;20.60;99.90
78550;DHT22;68091;52.130;5.570;2023-07-13T12:02:54;20.20;99.90
78550;DHT22;68091;52.130;5.570;2023-07-13T12:05:21;20.10;99.90
78550;DHT22;68091;52.130;5.570;2023-07-13T12:07:47;20.00;99.90
78550;DHT22;68091;52.130;5.570;2023-07-13T12:10:20;19.90;99.90
78550;DHT22;68091;52.130;5.570;2023-07-13T12:12:47;19.80;99.90
78550;DHT22;68091;52.130;5.570;2023-07-13T12:15:13;19.70;99.90
78550;DHT22;68091;52.130;5.570;2023-07-13T12:17:39;19.80;99.90
78550;DHT22;68091;52.130;5.570;2023-07-13T12:20:26;19.90;99.90
78550;DHT22;68091;52.130;5.570;2023-07-13T12:22:52;20.10;99.90
78550;DHT22;68091;52.130;5.570;2023-07-13T12:25:18;20.40;99.90
78550;DHT22;68091;52.130;5.570;2023-07-13T12:27:50;20.60;99.90
78550;DHT22;68091;52.130;5.570;2023-07-13T12:30:32;20.70;99.90
78550;DHT22;68091;52.130;5.570;2023-07-13T12:33:02;20.90;99.90
78550;DHT22;68091;52.130;5.570;2023-07-13T12:35:28;20.80;99.90
78550;DHT22;68091;52.130;5.570;2023-07-13T12:37:56;21.20;99.90
78550;DHT22;68091;52.130;5.570;2023-07-13T12:40:32;21.30;99.90
78550;DHT22;68091;52.130;5.570;2023-07-13T12:42:58;21.20;99.90
78550;DHT22;68091;52.130;5.570;2023-07-13T12:45:25;21.00;99.90
78550;DHT22;68091;52.130;5.570;2023-07-13T12:48:13;20.90;99.90
78550;DHT22;68091;52.130;5.570;2023-07-13T12:50:40;20.90;99.90
78550;DHT22;68091;52.130;5.570;2023-07-13T12:53:13;20.90;99.90
78550;DHT22;68091;52.130;5.570;2023-07-13T12:55:42;21.20;99.90
78550;DHT22;68091;52.130;5.570;2023-07-13T12:58:09;21.50;99.90
78550;DHT22;68091;52.130;5.570;2023-07-13T13:00:38;21.90;99.90
78550;DHT22;68091;52.130;5.570;2023-07-13T13:03:05;21.90;99.90
78550;DHT22;68091;52.130;5.570;2023-07-13T13:05:31;22.10;99.90
78550;DHT22;68091;52.130;5.570;2023-07-13T13:07:57;22.40;99.90
78550;DHT22;68091;52.130;5.570;2023-07-13T13:10:23;22.50;99.90
78550;DHT22;68091;52.130;5.570;2023-07-13T13:12:49;22.40;99.90
78550;DHT22;68091;52.130;5.570;2023-07-13T13:15:15;22.60;99.90
78550;DHT22;68091;52.130;5.570;2023-07-13T13:17:41;22.70;99.90
78550;DHT22;68091;52.130;5.570;2023-07-13T13:20:17;22.70;99.90
78550;DHT22;68091;52.130;5.570;2023-07-13T13:22:43;22.70;99.90
78550;DHT22;68091;52.130;5.570;2023-07-13T13:25:12;22.90;99.90
78550;DHT22;68091;52.130;5.570;2023-07-13T13:27:39;22.90;99.90
78550;DHT22;68091;52.130;5.570;2023-07-13T13:30:12;23.00;99.90
78550;DHT22;68091;52.130;5.570;2023-07-13T13:32:39;22.90;99.90
78550;DHT22;68091;52.130;5.570;2023-07-13T13:35:05;22.60;99.90
78550;DHT22;68091;52.130;5.570;2023-07-13T13:37:31;22.30;99.90
78550;DHT22;68091;52.130;5.570;2023-07-13T13:40:16;22.50;99.90
78550;DHT22;68091;52.130;5.570;2023-07-13T13:42:42;22.80;99.90
78550;DHT22;68091;52.130;5.570;2023-07-13T13:45:11;22.60;99.90
78550;DHT22;68091;52.130;5.570;2023-07-13T13:47:38;22.50;99.90
78550;DHT22;68091;52.130;5.570;2023-07-13T13:50:37;22.20;99.90
78550;DHT22;68091;52.130;5.570;2023-07-13T13:52:59;22.00;99.90
78550;DHT22;68091;52.130;5.570;2023-07-13T13:55:27;21.70;99.90
78550;DHT22;68091;52.130;5.570;2023-07-13T13:57:53;21.70;99.90
78550;DHT22;68091;52.130;5.570;2023-07-13T14:00:20;21.90;99.90
78550;DHT22;68091;52.130;5.570;2023-07-13T14:02:47;21.90;99.90
78550;DHT22;68091;52.130;5.570;2023-07-13T14:05:13;22.10;99.90
78550;DHT22;68091;52.130;5.570;2023-07-13T14:07:40;23.00;99.90
78550;DHT22;68091;52.130;5.570;2023-07-13T14:10:12;23.70;99.90
78550;DHT22;68091;52.130;5.570;2023-07-13T14:12:38;23.70;99.90
78550;DHT22;68091;52.130;5.570;2023-07-13T14:15:04;24.20;99.90
78550;DHT22;68091;52.130;5.570;2023-07-13T14:17:33;24.10;99.90
78550;DHT22;68091;52.130;5.570;2023-07-13T14:19:58;23.90;99.90
78550;DHT22;68091;52.130;5.570;2023-07-13T14:22:25;24.50;99.90
78550;DHT22;68091;52.130;5.570;2023-07-13T14:24:52;24.80;99.90
78550;DHT22;68091;52.130;5.570;2023-07-13T14:27:18;24.50;99.90
78550;DHT22;68091;52.130;5.570;2023-07-13T14:29:44;23.80;99.90
78550;DHT22;68091;52.130;5.570;2023-07-13T14:32:10;23.60;99.90
78550;DHT22;68091;52.130;5.570;2023-07-13T14:34:36;23.60;99.90
78550;DHT22;68091;52.130;5.570;2023-07-13T14:37:02;23.20;99.90
78550;DHT22;68091;52.130;5.570;2023-07-13T14:39:29;22.90;99.90
78550;DHT22;68091;52.130;5.570;2023-07-13T14:41:55;22.80;99.90
78550;DHT22;68091;52.130;5.570;2023-07-13T14:44:23;22.60;99.90
78550;DHT22;68091;52.130;5.570;2023-07-13T14:46:49;22.80;99.90
78550;DHT22;68091;52.130;5.570;2023-07-13T14:49:29;22.70;99.90
78550;DHT22;68091;52.130;5.570;2023-07-13T14:51:59;23.20;99.90
78550;DHT22;68091;52.130;5.570;2023-07-13T14:54:25;24.90;99.90
78550;DHT22;68091;52.130;5.570;2023-07-13T14:56:50;26.40;99.90
78550;DHT22;68091;52.130;5.570;2023-07-13T14:59:16;27.40;99.90
78550;DHT22;68091;52.130;5.570;2023-07-13T15:01:44;27.70;99.90
78550;DHT22;68091;52.130;5.570;2023-07-13T15:04:10;27.50;99.90
78550;DHT22;68091;52.130;5.570;2023-07-13T15:09:20;28.00;99.90
78550;DHT22;68091;52.130;5.570;2023-07-13T15:11:46;28.90;99.90
78550;DHT22;68091;52.130;5.570;2023-07-13T15:14:12;29.00;99.90
78550;DHT22;68091;52.130;5.570;2023-07-13T15:16:37;29.90;99.90
78550;DHT22;68091;52.130;5.570;2023-07-13T15:19:03;30.10;99.90
78550;DHT22;68091;52.130;5.570;2023-07-13T15:21:29;29.90;99.90
78550;DHT22;68091;52.130;5.570;2023-07-13T15:24:00;29.70;99.90
78550;DHT22;68091;52.130;5.570;2023-07-13T15:26:26;29.50;99.90
78550;DHT22;68091;52.130;5.570;2023-07-13T15:28:51;29.50;99.90
78550;DHT22;68091;52.130;5.570;2023-07-13T15:31:21;30.30;99.90
78550;DHT22;68091;52.130;5.570;2023-07-13T15:33:48;29.50;99.40
78550;DHT22;68091;52.130;5.570;2023-07-13T15:36:15;27.90;99.90
78550;DHT22;68091;52.130;5.570;2023-07-13T15:38:42;26.70;99.90
78550;DHT22;68091;52.130;5.570;2023-07-13T15:41:12;26.00;99.90
78550;DHT22;68091;52.130;5.570;2023-07-13T15:43:41;26.40;99.90
78550;DHT22;68091;52.130;5.570;2023-07-13T15:46:06;28.00;99.90
78550;DHT22;68091;52.130;5.570;2023-07-13T15:48:32;29.00;99.90
78550;DHT22;68091;52.130;5.570;2023-07-13T15:51:00;29.40;99.90
78550;DHT22;68091;52.130;5.570;2023-07-13T15:53:28;29.20;99.90
78550;DHT22;68091;52.130;5.570;2023-07-13T15:55:54;29.60;99.90
78550;DHT22;68091;52.130;5.570;2023-07-13T15:58:20;30.10;99.50
78550;DHT22;68091;52.130;5.570;2023-07-13T16:00:46;30.70;98.10
78550;DHT22;68091;52.130;5.570;2023-07-13T16:03:25;30.30;99.20